Time;durP1;ratioP1;P1;durP2;ratioP2;P2;SDS_P1;SDS_P2;PMS_P1;PMS_P2;Temp;Humidity;BMP_temperature;BMP_pressure;BME280_temperature;BME280_humidity;BME280_pressure;Samples;Min_cycle;Max_cycle;Signal;HPM_P1;HPM_P2
2023/03/02 00:00:15;;;;;;;0.45;0.45;;;;;;;3.19;53.41;101736.34;5141264;28;20041;-83
2023/03/02 00:02:46;;;;;;;0.30;0.30;;;;;;;3.17;52.91;101736.31;5147559;28;20097;-83
2023/03/02 00:05:16;;;;;;;0.20;0.20;;;;;;;3.20;53.00;101732.91;5153401;28;20043;-82
2023/03/02 00:07:47;;;;;;;1.25;1.20;;;;;;;3.02;53.51;101739.47;5149084;28;20031;-82
2023/03/02 00:10:17;;;;;;;0.40;0.40;;;;;;;3.06;53.56;101737.84;5148760;28;20035;-82
2023/03/02 00:12:48;;;;;;;2.88;2.47;;;;;;;3.14;53.05;101736.28;5151822;28;20405;-82
2023/03/02 00:15:19;;;;;;;0.68;0.68;;;;;;;3.12;53.64;101745.75;5145051;28;20066;-81
2023/03/02 00:17:49;;;;;;;1.60;1.50;;;;;;;3.25;52.58;101746.88;5140049;28;20053;-81
2023/03/02 00:20:20;;;;;;;0.57;0.57;;;;;;;3.22;52.92;101746.78;5151278;28;20637;-81
2023/03/02 00:22:50;;;;;;;1.50;1.40;;;;;;;3.26;53.08;101740.84;5144888;28;20055;-80
2023/03/02 00:25:21;;;;;;;1.50;1.48;;;;;;;3.27;52.74;101739.97;5158938;28;20045;-82
2023/03/02 00:27:51;;;;;;;1.40;1.40;;;;;;;3.23;53.12;101739.03;5129663;28;20042;-81
2023/03/02 00:30:22;;;;;;;0.30;0.30;;;;;;;3.23;52.68;101739.03;5155805;28;20585;-82
2023/03/02 00:32:52;;;;;;;0.55;0.55;;;;;;;3.03;53.74;101741.22;5141166;28;20039;-82
2023/03/02 00:35:25;;;;;;;2.47;1.15;;;;;;;3.17;53.21;101738.06;5138640;28;20132;-81
2023/03/02 00:37:56;;;;;;;1.45;1.35;;;;;;;3.21;53.03;101739.84;5134256;28;20030;-82
2023/03/02 00:40:26;;;;;;;1.88;1.48;;;;;;;3.24;52.97;101740.78;5132070;28;20448;-81
2023/03/02 00:42:57;;;;;;;1.83;1.73;;;;;;;3.24;52.77;101738.19;5145211;28;20084;-81
2023/03/02 00:45:27;;;;;;;0.77;0.77;;;;;;;3.25;52.44;101737.34;5136939;28;20082;-81
2023/03/02 00:47:57;;;;;;;1.45;1.35;;;;;;;3.21;52.75;101739.84;5151055;28;20043;-82
2023/03/02 00:50:28;;;;;;;1.05;1.05;;;;;;;3.26;52.74;101739.09;5135637;28;20749;-82
2023/03/02 00:52:59;;;;;;;0.30;0.30;;;;;;;3.19;53.92;101742.41;5157076;28;20045;-81
2023/03/02 00:55:29;;;;;;;0.63;0.63;;;;;;;3.28;52.84;101731.34;5156506;28;20038;-84
2023/03/02 00:58:00;;;;;;;0.50;0.50;;;;;;;3.29;52.48;101726.19;5155354;28;20030;-83
2023/03/02 01:00:33;;;;;;;0.98;0.98;;;;;;;3.31;52.69;101727.09;5139662;28;20046;-84
2023/03/02 01:03:03;;;;;;;0.70;0.70;;;;;;;3.32;52.56;101727.97;5151050;28;20041;-82
2023/03/02 01:05:36;;;;;;;0.55;0.55;;;;;;;3.33;52.65;101732.31;5150654;28;20034;-82
2023/03/02 01:08:06;;;;;;;0.82;0.82;;;;;;;3.32;52.59;101725.38;5156775;28;20082;-82
2023/03/02 01:10:38;;;;;;;0.25;0.25;;;;;;;3.31;52.65;101726.22;5169607;28;20061;-82
2023/03/02 01:13:08;;;;;;;0.30;0.30;;;;;;;3.26;52.92;101714.91;5161667;28;20050;-82
2023/03/02 01:15:39;;;;;;;1.48;1.38;;;;;;;3.28;53.06;101716.66;5138237;28;20069;-81
2023/03/02 01:18:10;;;;;;;3.10;2.80;;;;;;;3.28;52.80;101713.19;5144445;28;20042;-81
2023/03/02 01:20:40;;;;;;;0.88;0.88;;;;;;;3.21;53.27;101708.72;5136184;28;20057;-82
2023/03/02 01:23:11;;;;;;;0.40;0.40;;;;;;;3.19;52.92;101711.31;5141754;28;20035;-81
2023/03/02 01:25:41;;;;;;;0.30;0.30;;;;;;;3.25;53.14;101706.22;5134984;28;20042;-82
2023/03/02 01:28:11;;;;;;;0.55;0.55;;;;;;;3.27;52.72;101708.84;5162825;28;20061;-81
2023/03/02 01:30:42;;;;;;;0.65;0.65;;;;;;;3.19;52.99;101700.94;5141905;28;20038;-81
2023/03/02 01:33:13;;;;;;;1.13;1.13;;;;;;;3.17;53.33;101696.56;5144174;28;20208;-81
2023/03/02 01:35:45;;;;;;;0.50;0.50;;;;;;;3.14;52.81;101692.19;5130812;28;20062;-82
2023/03/02 01:38:15;;;;;;;0.95;0.95;;;;;;;3.18;52.85;101693.13;5141782;28;20053;-82
2023/03/02 01:40:46;;;;;;;0.30;0.30;;;;;;;3.09;52.72;101689.50;5141943;28;20039;-81
2023/03/02 01:43:16;;;;;;;0.30;0.30;;;;;;;3.11;52.67;101690.38;5145982;28;20034;-82
2023/03/02 01:46:19;;;;;;;7.47;3.33;;;;;;;3.08;52.55;101689.47;5138134;28;20045;-81
2023/03/02 01:48:55;;;;;;;1.05;1.05;;;;;;;3.05;52.91;101687.69;5142284;28;20700;-81
2023/03/02 01:51:29;;;;;;;1.13;1.13;;;;;;;3.07;52.62;101685.13;5139743;28;20038;-82
2023/03/02 01:54:01;;;;;;;;;;;;;;;3.01;53.29;101680.72;5139033;28;20620;-82
2023/03/02 01:56:36;;;;;;;1.30;1.20;;;;;;;3.00;52.45;101673.78;5150284;28;20332;-82
2023/03/02 01:59:12;;;;;;;0.30;0.30;;;;;;;2.99;52.66;101669.44;5166741;28;20038;-82
2023/03/02 02:01:46;;;;;;;1.25;1.25;;;;;;;2.90;53.13;101671.84;5149251;28;20042;-82
2023/03/02 02:04:17;;;;;;;1.25;1.25;;;;;;;2.82;53.10;101669.97;5153000;28;20114;-83
2023/03/02 02:06:53;;;;;;;0.75;0.75;;;;;;;2.89;52.70;101667.50;5146964;28;20031;-83
2023/03/02 02:09:25;;;;;;;0.57;0.57;;;;;;;2.87;52.93;101671.75;5135518;28;20027;-83
2023/03/02 02:11:55;;;;;;;1.85;0.90;;;;;;;2.85;52.95;101668.28;5132069;28;20490;-82
2023/03/02 02:14:27;;;;;;;0.98;0.98;;;;;;;2.80;52.81;101656.09;5152181;28;20035;-84
2023/03/02 02:16:57;;;;;;;0.40;0.40;;;;;;;2.80;53.19;101658.69;5133708;28;20041;-83
2023/03/02 02:19:37;;;;;;;0.63;0.63;;;;;;;2.76;53.29;101663.78;5145309;28;20039;-84
2023/03/02 02:22:09;;;;;;;0.43;0.43;;;;;;;2.83;53.42;101665.63;5151482;28;20027;-84
2023/03/02 02:24:48;;;;;;;1.10;1.10;;;;;;;2.78;53.69;101672.47;5141988;28;20721;-82
2023/03/02 02:27:18;;;;;;;0.73;0.70;;;;;;;2.80;53.27;101674.22;5154048;28;20564;-83
2023/03/02 02:29:51;;;;;;;0.40;0.40;;;;;;;2.78;53.73;101675.06;5141390;28;20031;-84
2023/03/02 02:32:27;;;;;;;1.45;0.68;;;;;;;2.77;53.20;101666.38;5145299;28;20026;-82
2023/03/02 02:35:18;;;;;;;0.82;0.82;;;;;;;2.72;53.75;101668.03;5144919;28;20045;-83
2023/03/02 02:37:52;;;;;;;1.10;1.05;;;;;;;2.77;53.79;101665.53;5146129;28;20030;-84
2023/03/02 02:40:41;;;;;;;0.40;0.40;;;;;;;2.78;53.45;101675.06;5142088;28;20450;-82
2023/03/02 02:43:15;;;;;;;0.73;0.73;;;;;;;2.68;53.82;101666.22;5157913;28;20027;-84
2023/03/02 02:45:48;;;;;;;0.60;0.60;;;;;;;2.70;53.64;101668.84;5157051;28;20039;-83
2023/03/02 02:48:22;;;;;;;1.65;1.55;;;;;;;2.60;53.99;101668.63;5143920;28;20057;-81
2023/03/02 02:50:59;;;;;;;0.90;0.88;;;;;;;2.62;53.85;101671.25;5137317;28;20034;-81
2023/03/02 02:53:40;;;;;;;5.30;2.20;;;;;;;2.52;53.88;101671.06;5152141;28;20038;-83
2023/03/02 02:56:11;;;;;;;0.82;0.82;;;;;;;2.50;53.95;101667.59;5149848;28;20050;-83
2023/03/02 02:58:46;;;;;;;1.38;1.38;;;;;;;2.51;53.23;101668.44;5155191;28;20981;-83
2023/03/02 03:01:24;;;;;;;0.45;0.45;;;;;;;2.48;53.27;101661.47;5151074;28;20138;-82
2023/03/02 03:04:02;;;;;;;0.77;0.77;;;;;;;2.48;53.19;101665.81;5149913;28;20102;-83
2023/03/02 03:06:40;;;;;;;0.60;0.57;;;;;;;2.46;53.76;101663.16;5130981;28;20114;-83
2023/03/02 03:09:11;;;;;;;0.90;0.90;;;;;;;2.44;53.73;101662.25;5146615;28;20042;-80
2023/03/02 03:11:45;;;;;;;0.63;0.63;;;;;;;2.41;53.55;101657.00;5144004;28;20030;-83
2023/03/02 03:14:18;;;;;;;0.70;0.68;;;;;;;2.44;53.83;101657.06;5149490;28;20058;-82
2023/03/02 03:16:50;;;;;;;0.50;0.50;;;;;;;2.44;53.83;101651.03;5148147;28;20275;-83
2023/03/02 03:19:29;;;;;;;1.27;1.25;;;;;;;2.37;54.13;101644.81;5156300;28;20030;-82
2023/03/02 03:22:01;;;;;;;0.30;0.30;;;;;;;2.41;53.94;101656.13;5143399;28;20421;-84
2023/03/02 03:24:33;;;;;;;3.63;1.67;;;;;;;2.37;53.66;101650.00;5157274;28;20069;-83
2023/03/02 03:27:05;;;;;;;0.80;0.80;;;;;;;2.38;53.67;101650.91;5162134;28;20073;-82
2023/03/02 03:29:39;;;;;;;0.93;0.93;;;;;;;2.32;53.76;101649.03;5145153;28;20034;-84
2023/03/02 03:32:09;;;;;;;;;;;;;;;2.35;54.07;101652.56;5143506;28;20037;-84
2023/03/02 03:34:41;;;;;;;0.57;0.57;;;;;;;2.32;54.14;101651.63;5152852;28;20005;-82
2023/03/02 03:37:16;;;;;;;0.40;0.40;;;;;;;2.33;53.60;101648.22;5145906;28;20058;-81
2023/03/02 03:39:46;;;;;;;0.63;0.63;;;;;;;2.31;53.69;101653.38;5140242;28;20696;-81
2023/03/02 03:42:17;;;;;;;0.30;0.30;;;;;;;2.22;53.92;101655.75;5149493;28;20033;-82
2023/03/02 03:44:47;;;;;;;1.23;0.85;;;;;;;2.15;54.54;101659.03;5149673;28;20585;-82
2023/03/02 03:47:18;;;;;;;0.20;0.20;;;;;;;1.93;55.21;101657.66;5143643;28;20117;-82
2023/03/02 03:49:48;;;;;;;1.77;1.67;;;;;;;2.06;54.37;101651.06;5144055;28;20034;-81
2023/03/02 03:52:29;;;;;;;0.30;0.30;;;;;;;2.13;54.15;101647.75;5137569;28;20099;-83
2023/03/02 03:55:00;;;;;;;2.05;1.67;;;;;;;2.10;54.58;101658.03;5153216;28;20047;-81
2023/03/02 03:57:30;;;;;;;0.22;0.22;;;;;;;2.12;53.91;101651.19;5137749;28;20093;-82
2023/03/02 04:00:04;;;;;;;0.40;0.40;;;;;;;2.07;54.37;101645.03;5141900;28;20046;-81
2023/03/02 04:02:36;;;;;;;2.05;1.95;;;;;;;2.08;54.40;101655.44;5154820;28;20019;-82
2023/03/02 04:05:07;;;;;;;1.30;1.02;;;;;;;2.10;54.12;101651.16;5155836;28;20031;-81
2023/03/02 04:07:39;;;;;;;0.80;0.80;;;;;;;2.07;53.97;101650.22;5143446;28;20022;-81
2023/03/02 04:10:11;;;;;;;0.63;0.63;;;;;;;2.08;54.08;101642.47;5141186;28;20071;-80
2023/03/02 04:12:41;;;;;;;0.88;0.88;;;;;;;2.03;54.77;101644.06;5165382;28;20027;-82
2023/03/02 04:15:14;;;;;;;0.43;0.43;;;;;;;1.93;54.22;101644.72;5150344;28;20043;-84
2023/03/02 04:17:45;;;;;;;0.30;0.30;;;;;;;2.02;54.41;101638.03;5141397;28;20367;-82
2023/03/02 04:20:20;;;;;;;0.25;0.25;;;;;;;2.03;53.91;101649.25;5157252;28;20046;-82
2023/03/02 04:22:53;;;;;;;0.30;0.30;;;;;;;1.99;54.61;101645.72;5152611;28;20042;-81
2023/03/02 04:25:25;;;;;;;0.77;0.77;;;;;;;1.99;54.56;101642.25;5150852;28;20093;-81
2023/03/02 04:27:56;;;;;;;0.55;0.55;;;;;;;2.02;54.61;101647.53;5155237;28;20361;-81
2023/03/02 04:30:26;;;;;;;0.65;0.65;;;;;;;1.86;54.59;101643.69;5146299;28;20141;-83
2023/03/02 04:32:57;;;;;;;0.63;0.63;;;;;;;1.88;54.82;101650.66;5136986;28;20062;-81
2023/03/02 04:35:27;;;;;;;0.70;0.68;;;;;;;1.88;54.38;101645.47;5140659;28;20026;-83
2023/03/02 04:37:58;;;;;;;0.30;0.30;;;;;;;1.91;54.48;101648.97;5135650;28;20041;-81
2023/03/02 04:40:28;;;;;;;0.50;0.50;;;;;;;1.89;54.35;101642.03;5155052;28;20034;-83
2023/03/02 04:42:59;;;;;;;0.73;0.73;;;;;;;1.87;54.46;101651.47;5137236;28;20097;-84
2023/03/02 04:45:29;;;;;;;0.30;0.30;;;;;;;1.82;54.37;101640.16;5164823;28;20093;-82
2023/03/02 04:48:00;;;;;;;0.40;0.40;;;;;;;1.88;54.85;101645.47;5162142;28;20038;-81
2023/03/02 04:50:30;;;;;;;0.57;0.57;;;;;;;1.81;54.68;101651.34;5151277;28;20039;-84
2023/03/02 04:53:01;;;;;;;1.08;1.05;;;;;;;1.84;55.06;101643.66;5154528;28;20067;-82
2023/03/02 04:55:32;;;;;;;1.50;1.45;;;;;;;1.83;54.71;101646.19;5150292;28;20109;-85
2023/03/02 04:58:03;;;;;;;0.73;0.73;;;;;;;1.77;54.58;101643.47;5148369;28;20823;-83
2023/03/02 05:00:34;;;;;;;0.40;0.40;;;;;;;1.78;54.30;101642.63;5138590;28;20042;-83
2023/03/02 05:03:05;;;;;;;0.75;0.75;;;;;;;1.71;55.46;101644.19;5138064;28;20031;-83
2023/03/02 05:05:35;;;;;;;0.50;0.50;;;;;;;1.79;54.49;101646.97;5134132;28;20037;-84
2023/03/02 05:08:06;;;;;;;0.73;0.73;;;;;;;1.75;55.60;101645.13;5166701;28;20042;-82
2023/03/02 05:10:36;;;;;;;0.40;0.40;;;;;;;1.73;55.23;101645.09;5138975;28;20371;-83
2023/03/02 05:13:07;;;;;;;0.30;0.30;;;;;;;1.65;54.98;101646.63;5139643;28;20035;-82
2023/03/02 05:15:39;;;;;;;0.40;0.40;;;;;;;1.57;55.51;101639.56;5143565;28;20386;-83
2023/03/02 05:18:10;;;;;;;2.15;2.05;;;;;;;1.29;57.64;101640.56;5136436;28;20019;-82
2023/03/02 05:20:41;;;;;;;0.38;0.38;;;;;;;1.48;56.05;101641.91;5154501;28;20632;-82
2023/03/02 05:23:22;;;;;;;0.65;0.65;;;;;;;1.39;56.52;101644.25;5152146;28;20089;-81
2023/03/02 05:25:56;;;;;;;0.50;0.50;;;;;;;1.35;56.34;101642.44;5148687;28;20049;-83
2023/03/02 05:28:26;;;;;;;0.47;0.47;;;;;;;1.37;56.05;101643.34;5142666;28;20035;-83
2023/03/02 05:30:57;;;;;;;0.85;0.85;;;;;;;1.41;55.83;101642.59;5136604;28;20072;-85
2023/03/02 05:33:28;;;;;;;0.70;0.70;;;;;;;1.34;56.07;101646.72;5132876;28;20040;-83
2023/03/02 05:36:02;;;;;;;2.55;1.27;;;;;;;1.12;57.06;101647.88;5150540;28;20030;-82
2023/03/02 05:38:33;;;;;;;1.77;1.67;;;;;;;1.11;57.69;101648.72;5143881;28;20283;-82
2023/03/02 05:41:03;;;;;;;0.20;0.20;;;;;;;1.27;56.03;101643.97;5143787;28;20055;-82
2023/03/02 05:43:35;;;;;;;0.30;0.30;;;;;;;1.21;56.95;101649.84;5154574;28;20107;-82
2023/03/02 05:46:05;;;;;;;0.93;0.80;;;;;;;1.18;57.22;101649.75;5146877;28;20058;-86
2023/03/02 05:48:36;;;;;;;0.63;0.63;;;;;;;1.15;56.87;101647.97;5154979;28;20061;-83
2023/03/02 05:51:06;;;;;;;1.92;1.75;;;;;;;1.25;56.27;101647.38;5147955;28;20050;-83
2023/03/02 05:53:37;;;;;;;0.50;0.50;;;;;;;1.27;56.18;101654.31;5138101;28;20663;-83
2023/03/02 05:56:08;;;;;;;1.48;1.38;;;;;;;1.31;55.99;101650.94;5156495;28;20031;-84
2023/03/02 05:58:38;;;;;;;0.45;0.45;;;;;;;1.32;55.81;101655.28;5151597;28;20179;-83
2023/03/02 06:01:10;;;;;;;0.52;0.52;;;;;;;1.37;55.73;101645.94;5154387;28;20687;-84
2023/03/02 06:03:41;;;;;;;0.80;0.80;;;;;;;1.39;55.44;101650.31;5142415;28;20037;-83
2023/03/02 06:06:14;;;;;;;0.30;0.30;;;;;;;1.37;55.80;101653.69;5136610;28;20453;-83
2023/03/02 06:08:45;;;;;;;0.80;0.70;;;;;;;1.34;55.62;101648.44;5147057;28;20038;-83
2023/03/02 06:11:15;;;;;;;1.20;1.15;;;;;;;1.40;56.19;101652.09;5138484;28;20027;-83
2023/03/02 06:13:46;;;;;;;0.50;0.50;;;;;;;1.42;55.60;101652.97;5155943;28;20030;-83
2023/03/02 06:16:17;;;;;;;0.50;0.50;;;;;;;1.47;55.73;101653.09;5154410;28;20042;-84
2023/03/02 06:18:47;;;;;;;0.30;0.30;;;;;;;1.40;56.03;101648.59;5152564;28;20026;-83
2023/03/02 06:21:18;;;;;;;1.55;1.45;;;;;;;1.35;56.08;101650.22;5142429;28;20533;-84
2023/03/02 06:23:48;;;;;;;0.40;0.40;;;;;;;1.38;55.75;101652.84;5151268;28;20034;-83
2023/03/02 06:26:18;;;;;;;0.98;0.90;;;;;;;1.31;55.67;101657.00;5134247;28;20041;-83
2023/03/02 06:28:49;;;;;;;0.30;0.30;;;;;;;1.34;55.74;101656.22;5146542;28;20050;-83
2023/03/02 06:31:20;;;;;;;0.45;0.45;;;;;;;1.32;55.61;101660.47;5136558;28;20111;-83
2023/03/02 06:33:51;;;;;;;1.27;1.17;;;;;;;1.31;55.41;101657.00;5145262;28;20027;-82
2023/03/02 06:36:21;;;;;;;0.52;0.52;;;;;;;1.34;55.34;101654.50;5138162;28;20039;-83
2023/03/02 06:38:52;;;;;;;0.55;0.55;;;;;;;1.33;55.60;101651.88;5153383;28;20037;-78
2023/03/02 06:41:24;;;;;;;1.05;1.05;;;;;;;1.35;55.72;101652.78;5128802;28;20043;-79
2023/03/02 06:43:54;;;;;;;0.38;0.38;;;;;;;1.35;55.14;101653.66;5155005;28;20150;-80
2023/03/02 06:46:25;;;;;;;0.20;0.20;;;;;;;1.34;55.40;101659.66;5128990;28;20054;-79
2023/03/02 06:48:55;;;;;;;1.02;1.00;;;;;;;1.36;55.76;101651.97;5142827;28;20050;-80
2023/03/02 06:51:26;;;;;;;0.30;0.30;;;;;;;1.33;55.76;101654.47;5154445;28;20094;-77
2023/03/02 06:53:57;;;;;;;0.30;0.30;;;;;;;1.27;55.69;101655.16;5157375;28;20522;-78
2023/03/02 06:56:27;;;;;;;1.17;1.15;;;;;;;1.28;55.80;101658.66;5143642;28;20065;-78
2023/03/02 06:58:58;;;;;;;1.00;1.00;;;;;;;1.25;56.06;101659.41;5147882;28;20018;-78
2023/03/02 07:01:34;;;;;;;5.72;2.58;;;;;;;1.24;56.19;101666.31;5142694;28;20043;-80
2023/03/02 07:04:04;;;;;;;0.95;0.95;;;;;;;1.32;56.12;101663.94;5151313;28;20762;-81
2023/03/02 07:06:35;;;;;;;0.82;0.82;;;;;;;1.32;55.72;101660.47;5134950;28;20049;-81
2023/03/02 07:09:05;;;;;;;0.52;0.52;;;;;;;1.30;55.60;101665.59;5139529;28;20023;-79
2023/03/02 07:11:35;;;;;;;0.73;0.73;;;;;;;1.31;56.20;101664.78;5157876;28;20042;-80
2023/03/02 07:14:06;;;;;;;0.50;0.50;;;;;;;1.29;56.32;101661.25;5137850;28;20088;-78
2023/03/02 07:16:36;;;;;;;0.35;0.35;;;;;;;1.31;55.81;101650.94;5148557;28;20041;-79
2023/03/02 07:19:12;;;;;;;0.70;0.70;;;;;;;1.34;55.70;101664.84;5153330;28;20026;-79
2023/03/02 07:21:43;;;;;;;0.52;0.52;;;;;;;1.30;56.10;101662.13;5147210;28;20043;-78
2023/03/02 07:24:13;;;;;;;0.30;0.30;;;;;;;1.27;56.42;101659.47;5143048;28;20129;-78
2023/03/02 07:26:43;;;;;;;0.90;0.90;;;;;;;1.34;56.18;101663.97;5133764;28;20053;-78
2023/03/02 07:29:14;;;;;;;0.60;0.60;;;;;;;1.31;56.27;101658.72;5136409;28;20062;-78
2023/03/02 07:31:44;;;;;;;1.20;1.20;;;;;;;1.27;56.57;101669.81;5153337;28;20082;-79
2023/03/02 07:34:15;;;;;;;2.20;2.10;;;;;;;1.29;56.23;101673.28;5158327;28;20042;-80
2023/03/02 07:36:45;;;;;;;0.30;0.30;;;;;;;1.32;56.67;101670.81;5132733;28;20039;-81
2023/03/02 07:39:16;;;;;;;0.77;0.77;;;;;;;1.08;58.42;101670.19;5140506;28;20031;-78
2023/03/02 07:41:47;;;;;;;0.57;0.57;;;;;;;1.24;57.10;101670.63;5150662;28;20256;-79
2023/03/02 07:44:17;;;;;;;0.70;0.70;;;;;;;1.22;57.55;101678.31;5148002;28;20033;-78
2023/03/02 07:46:48;;;;;;;1.50;1.45;;;;;;;1.33;56.78;101675.16;5152718;28;20442;-79
2023/03/02 07:49:19;;;;;;;2.58;1.55;;;;;;;1.27;57.07;101667.22;5159392;28;20026;-78
2023/03/02 07:51:49;;;;;;;0.30;0.30;;;;;;;1.20;58.14;101677.38;5148579;28;20038;-78
2023/03/02 07:54:20;;;;;;;0.60;0.60;;;;;;;1.34;57.54;101666.56;5160636;28;20023;-78
2023/03/02 07:56:51;;;;;;;0.65;0.65;;;;;;;1.26;58.02;101666.34;5143142;28;20518;-77
2023/03/02 07:59:21;;;;;;;1.02;1.02;;;;;;;1.16;58.66;101674.72;5155498;28;20061;-77
2023/03/02 08:01:52;;;;;;;0.82;0.82;;;;;;;1.37;57.74;101669.19;5164066;28;20062;-78
2023/03/02 08:04:23;;;;;;;0.57;0.57;;;;;;;1.32;57.91;101670.81;5155691;28;20033;-78
2023/03/02 08:06:53;;;;;;;0.40;0.40;;;;;;;1.34;58.34;101670.00;5171509;28;20038;-78
2023/03/02 08:09:24;;;;;;;1.40;1.30;;;;;;;1.30;58.92;101670.78;5164134;28;20363;-78
2023/03/02 08:11:54;;;;;;;1.35;1.25;;;;;;;1.40;58.57;101672.78;5145961;28;20038;-78
2023/03/02 08:14:25;;;;;;;4.18;1.25;;;;;;;1.48;57.76;101670.38;5143190;28;20019;-78
2023/03/02 08:16:55;;;;;;;1.02;1.02;;;;;;;1.38;58.36;101670.97;5148587;28;20053;-78
2023/03/02 08:19:26;;;;;;;0.40;0.40;;;;;;;1.47;58.85;101672.94;5151301;28;20018;-79
2023/03/02 08:21:57;;;;;;;0.73;0.73;;;;;;;1.30;59.43;101677.63;5158875;28;20098;-78
2023/03/02 08:24:27;;;;;;;0.22;0.22;;;;;;;1.51;58.43;101675.63;5147811;28;20027;-79
2023/03/02 08:27:02;;;;;;;0.90;0.90;;;;;;;1.62;58.31;101678.47;5139584;28;20030;-79
2023/03/02 08:29:33;;;;;;;1.13;1.13;;;;;;;1.62;57.92;101673.31;5152442;28;20042;-77
2023/03/02 08:32:04;;;;;;;0.57;0.57;;;;;;;1.64;57.97;101671.66;5130592;28;20027;-80
2023/03/02 08:34:34;;;;;;;1.13;1.13;;;;;;;1.71;57.65;101670.06;5139008;28;20027;-81
2023/03/02 08:37:05;;;;;;;2.20;2.05;;;;;;;1.68;57.82;101668.28;5139131;28;20026;-80
2023/03/02 08:39:35;;;;;;;0.43;0.43;;;;;;;1.57;57.54;101670.59;5130622;28;20082;-80
2023/03/02 08:42:06;;;;;;;0.80;0.80;;;;;;;1.70;57.43;101665.72;5146423;28;20134;-80
2023/03/02 08:44:37;;;;;;;1.42;1.13;;;;;;;1.75;57.15;101671.91;5143950;28;20042;-80
2023/03/02 08:47:07;;;;;;;0.50;0.50;;;;;;;1.73;57.76;101670.97;5138464;28;20481;-80
2023/03/02 08:49:38;;;;;;;1.33;1.17;;;;;;;1.83;57.29;101664.31;5135891;28;20034;-80
2023/03/02 08:52:08;;;;;;;0.30;0.30;;;;;;;1.86;56.51;101670.44;5139671;28;20019;-79
2023/03/02 08:54:39;;;;;;;2.05;1.30;;;;;;;1.93;56.98;101668.00;5156730;28;20062;-80
2023/03/02 08:57:11;;;;;;;0.40;0.40;;;;;;;1.91;56.72;101664.50;5140726;28;20030;-78
2023/03/02 08:59:41;;;;;;;0.38;0.38;;;;;;;2.01;56.60;101656.13;5154636;28;20035;-80
2023/03/02 09:02:12;;;;;;;1.15;1.05;;;;;;;2.02;56.86;101653.56;5153476;28;20038;-78
2023/03/02 09:04:43;;;;;;;0.60;0.60;;;;;;;2.11;56.28;101650.28;5162276;28;20477;-78
2023/03/02 09:07:16;;;;;;;0.82;0.82;;;;;;;2.16;56.49;101648.72;5153347;28;20038;-79
2023/03/02 09:09:46;;;;;;;0.88;0.88;;;;;;;2.27;55.65;101646.34;5150967;28;20034;-79
2023/03/02 09:12:16;;;;;;;1.08;1.05;;;;;;;2.29;55.85;101651.56;5151183;28;20506;-79
2023/03/02 09:14:47;;;;;;;0.38;0.38;;;;;;;2.36;55.62;101650.84;5165474;28;20081;-81
2023/03/02 09:17:18;;;;;;;0.93;0.93;;;;;;;2.48;55.36;101648.53;5154719;28;20126;-81
2023/03/02 09:19:54;;;;;;;0.63;0.63;;;;;;;2.51;55.13;101653.78;5147745;28;20019;-81
2023/03/02 09:22:24;;;;;;;0.63;0.63;;;;;;;2.51;55.49;101640.84;5164190;28;20041;-80
2023/03/02 09:24:55;;;;;;;0.75;0.70;;;;;;;2.67;54.94;101641.16;5130110;28;20356;-80
2023/03/02 09:27:25;;;;;;;3.80;2.05;;;;;;;2.68;54.78;101632.53;5121999;28;20045;-80
2023/03/02 09:29:56;;;;;;;0.28;0.28;;;;;;;2.76;55.33;101633.56;5144061;28;20661;-79
2023/03/02 09:32:26;;;;;;;0.90;0.90;;;;;;;2.85;54.81;101632.00;5136384;28;20030;-80
2023/03/02 09:34:57;;;;;;;2.13;2.03;;;;;;;2.89;54.12;101631.19;5148168;28;20035;-79
2023/03/02 09:37:27;;;;;;;0.80;0.80;;;;;;;2.91;54.49;101630.38;5126515;28;20605;-80
2023/03/02 09:39:58;;;;;;;0.63;0.63;;;;;;;2.94;54.17;101633.03;5131114;28;20043;-81
2023/03/02 09:42:39;;;;;;;0.65;0.65;;;;;;;3.01;54.34;101626.25;5148083;28;20057;-79
2023/03/02 09:45:46;;;;;;;1.63;1.27;;;;;;;3.08;54.04;101635.00;5133831;28;20030;-79
2023/03/02 09:48:26;;;;;;;1.10;1.10;;;;;;;3.14;53.37;101633.41;5158080;28;20027;-80
2023/03/02 09:51:30;;;;;;;5.93;2.30;;;;;;;3.23;53.25;101634.41;5141228;28;20046;-80
2023/03/02 09:54:09;;;;;;;1.50;1.40;;;;;;;3.25;52.20;101632.72;5150331;28;20041;-80
2023/03/02 09:56:47;;;;;;;0.75;0.75;;;;;;;3.31;52.38;101636.28;5143401;28;20709;-79
2023/03/02 09:59:36;;;;;;;0.85;0.85;;;;;;;3.43;53.31;101635.63;5127460;28;20039;-79
2023/03/02 10:02:36;;;;;;;0.20;0.20;;;;;;;3.48;53.87;101635.72;5145641;28;20042;-79
2023/03/02 10:05:15;;;;;;;1.25;1.15;;;;;;;3.60;52.86;101641.13;5145337;28;20129;-77
2023/03/02 10:07:46;;;;;;;0.38;0.38;;;;;;;3.61;53.75;101629.91;5150837;28;20655;-77
2023/03/02 10:10:17;;;;;;;0.63;0.63;;;;;;;3.65;53.64;101628.22;5144552;28;20065;-77
2023/03/02 10:13:02;;;;;;;1.17;0.90;;;;;;;3.62;53.21;101633.34;5159924;28;20482;-78
2023/03/02 10:15:44;;;;;;;2.00;1.23;;;;;;;3.74;53.20;101628.38;5150308;28;20117;-77
2023/03/02 10:18:21;;;;;;;0.30;0.30;;;;;;;3.80;52.66;101630.19;5141476;28;20030;-79
2023/03/02 10:20:58;;;;;;;1.05;1.00;;;;;;;3.85;52.28;101627.63;5141317;28;20042;-79
2023/03/02 10:24:01;;;;;;;0.30;0.30;;;;;;;4.02;52.24;101631.38;5157694;28;20088;-79
2023/03/02 10:26:40;;;;;;;1.42;1.33;;;;;;;4.03;52.05;101630.50;5141005;28;20050;-77
2023/03/02 10:29:17;;;;;;;1.23;0.88;;;;;;;4.09;52.83;101630.59;5147419;28;20402;-77
2023/03/02 10:31:56;;;;;;;2.03;1.45;;;;;;;4.09;51.77;101628.00;5128040;28;20057;-79
2023/03/02 10:34:29;;;;;;;3.58;2.60;;;;;;;4.23;52.06;101625.59;5135920;28;20521;-80
2023/03/02 10:36:59;;;;;;;0.55;0.47;;;;;;;4.29;52.39;101621.34;5148066;28;20047;-82
2023/03/02 10:39:30;;;;;;;1.17;1.17;;;;;;;4.27;50.97;101612.66;5134433;28;20027;-78
2023/03/02 10:42:06;;;;;;;0.55;0.55;;;;;;;4.24;51.56;101616.09;5131687;28;20039;-79
2023/03/02 10:44:40;;;;;;;1.70;1.58;;;;;;;4.40;51.16;101612.84;5144284;28;20030;-78
2023/03/02 10:47:23;;;;;;;0.43;0.43;;;;;;;4.41;51.28;101605.91;5126983;28;20038;-79
2023/03/02 10:49:55;;;;;;;3.47;1.40;;;;;;;4.50;51.62;101599.97;5139472;28;20101;-77
2023/03/02 10:52:27;;;;;;;1.38;1.05;;;;;;;4.60;50.41;101596.59;5122572;28;20140;-79
2023/03/02 10:55:24;;;;;;;2.03;1.92;;;;;;;4.65;50.72;101601.88;5143224;28;22831;-78
2023/03/02 10:57:57;;;;;;;1.67;1.58;;;;;;;4.62;50.58;101594.91;5138133;28;20075;-78
2023/03/02 11:00:30;;;;;;;0.82;0.82;;;;;;;4.84;50.47;101596.03;5130140;28;20043;-77
2023/03/02 11:03:04;;;;;;;0.40;0.40;;;;;;;4.79;50.75;101591.63;5146375;28;20030;-81
2023/03/02 11:05:37;;;;;;;0.45;0.45;;;;;;;4.80;50.58;101585.56;5141096;28;20615;-79
2023/03/02 11:08:10;;;;;;;1.33;1.30;;;;;;;4.96;50.23;101590.06;5135572;28;20035;-78
2023/03/02 11:10:55;;;;;;;0.40;0.40;;;;;;;5.09;49.34;101590.19;5137889;28;20047;-80
2023/03/02 11:13:32;;;;;;;1.13;1.13;;;;;;;5.27;49.78;101595.56;5144107;28;20328;-78
2023/03/02 11:16:20;;;;;;;1.20;1.20;;;;;;;5.17;49.96;101588.53;5146549;28;20061;-79
2023/03/02 11:18:51;;;;;;;1.55;1.45;;;;;;;5.27;49.98;101584.28;5150216;28;20031;-78
2023/03/02 11:21:34;;;;;;;0.30;0.30;;;;;;;5.31;49.28;101584.34;5154202;28;20057;-77
2023/03/02 11:24:19;;;;;;;0.60;0.60;;;;;;;5.36;49.33;101595.66;5145365;28;20030;-78
2023/03/02 11:26:53;;;;;;;1.75;1.65;;;;;;;5.44;50.11;101593.13;5144769;28;20066;-78
2023/03/02 11:29:46;;;;;;;0.82;0.82;;;;;;;5.53;48.06;101589.72;5131250;28;20030;-79
2023/03/02 11:32:24;;;;;;;0.40;0.40;;;;;;;5.64;49.18;101582.88;5145041;28;20478;-78
2023/03/02 11:35:01;;;;;;;0.60;0.60;;;;;;;5.73;49.52;101586.38;5134594;28;20918;-79
2023/03/02 11:37:49;;;;;;;1.35;1.25;;;;;;;5.82;48.63;101583.84;5161854;28;20106;-80
2023/03/02 11:40:34;;;;;;;0.40;0.40;;;;;;;5.74;48.55;101570.75;5125460;28;20035;-78
2023/03/02 11:43:06;;;;;;;0.40;0.40;;;;;;;5.78;48.99;101582.06;5136179;28;20330;-81
2023/03/02 11:45:43;;;;;;;0.47;0.47;;;;;;;5.86;49.18;101571.72;5132825;28;20124;-80
2023/03/02 11:48:18;;;;;;;1.00;0.47;;;;;;;6.05;48.10;101570.13;5130571;28;20105;-77
2023/03/02 11:50:55;;;;;;;1.77;0.93;;;;;;;6.04;49.07;101576.19;5135014;28;20039;-81
2023/03/02 11:53:32;;;;;;;1.48;1.38;;;;;;;6.12;47.45;101571.88;5133658;28;20026;-81
2023/03/02 11:56:02;;;;;;;0.70;0.70;;;;;;;6.20;47.64;101570.19;5137049;28;20045;-80
2023/03/02 11:58:33;;;;;;;2.83;1.15;;;;;;;6.28;47.74;101573.69;5134816;28;20114;-80
2023/03/02 12:01:10;;;;;;;1.55;1.50;;;;;;;6.46;47.58;101572.91;5147703;28;20201;-78